sensor_id;sensor_type;location;lat;lon;timestamp;P1;durP1;ratioP1;P2;durP2;ratioP2
43996;SDS011;34318;45.818;15.964;2022-07-23T00:00:37;6.13;;;5.05;;
43996;SDS011;34318;45.818;15.964;2022-07-23T00:03:05;5.03;;;4.63;;
43996;SDS011;34318;45.818;15.964;2022-07-23T00:05:33;4.60;;;4.05;;
43996;SDS011;34318;45.818;15.964;2022-07-23T00:08:03;5.60;;;4.57;;
43996;SDS011;34318;45.818;15.964;2022-07-23T00:10:34;5.38;;;4.50;;
43996;SDS011;34318;45.818;15.964;2022-07-23T00:13:01;7.90;;;5.45;;
43996;SDS011;34318;45.818;15.964;2022-07-23T00:15:28;5.22;;;4.65;;
43996;SDS011;34318;45.818;15.964;2022-07-23T00:17:56;5.90;;;4.78;;
43996;SDS011;34318;45.818;15.964;2022-07-23T00:20:22;5.32;;;4.82;;
43996;SDS011;34318;45.818;15.964;2022-07-23T00:22:53;5.13;;;4.63;;
43996;SDS011;34318;45.818;15.964;2022-07-23T00:25:21;5.07;;;4.57;;
43996;SDS011;34318;45.818;15.964;2022-07-23T00:27:55;4.50;;;4.10;;
43996;SDS011;34318;45.818;15.964;2022-07-23T00:30:29;5.25;;;4.68;;
43996;SDS011;34318;45.818;15.964;2022-07-23T00:32:58;7.45;;;5.00;;
43996;SDS011;34318;45.818;15.964;2022-07-23T00:35:30;5.13;;;4.70;;
43996;SDS011;34318;45.818;15.964;2022-07-23T00:38:02;5.10;;;4.60;;
43996;SDS011;34318;45.818;15.964;2022-07-23T00:40:31;6.60;;;5.00;;
43996;SDS011;34318;45.818;15.964;2022-07-23T00:42:58;5.30;;;4.80;;
43996;SDS011;34318;45.818;15.964;2022-07-23T00:45:25;4.88;;;4.47;;
43996;SDS011;34318;45.818;15.964;2022-07-23T00:47:53;5.43;;;4.90;;
43996;SDS011;34318;45.818;15.964;2022-07-23T00:50:20;4.38;;;3.97;;
43996;SDS011;34318;45.818;15.964;2022-07-23T00:52:47;4.72;;;4.32;;
43996;SDS011;34318;45.818;15.964;2022-07-23T00:55:15;4.90;;;4.50;;
43996;SDS011;34318;45.818;15.964;2022-07-23T00:57:42;5.15;;;4.65;;
43996;SDS011;34318;45.818;15.964;2022-07-23T01:00:10;5.03;;;4.53;;
43996;SDS011;34318;45.818;15.964;2022-07-23T01:02:39;4.80;;;4.40;;
43996;SDS011;34318;45.818;15.964;2022-07-23T01:05:07;5.28;;;4.82;;
43996;SDS011;34318;45.818;15.964;2022-07-23T01:07:35;5.25;;;4.75;;
43996;SDS011;34318;45.818;15.964;2022-07-23T01:10:03;5.57;;;4.80;;
43996;SDS011;34318;45.818;15.964;2022-07-23T01:12:52;4.93;;;4.43;;
43996;SDS011;34318;45.818;15.964;2022-07-23T01:15:20;6.10;;;4.57;;
43996;SDS011;34318;45.818;15.964;2022-07-23T01:17:48;5.18;;;4.78;;
43996;SDS011;34318;45.818;15.964;2022-07-23T01:20:15;5.60;;;5.10;;
43996;SDS011;34318;45.818;15.964;2022-07-23T01:22:42;5.35;;;4.85;;
43996;SDS011;34318;45.818;15.964;2022-07-23T01:25:09;4.40;;;4.10;;
43996;SDS011;34318;45.818;15.964;2022-07-23T01:27:36;6.45;;;4.97;;
43996;SDS011;34318;45.818;15.964;2022-07-23T01:30:03;5.00;;;4.50;;
43996;SDS011;34318;45.818;15.964;2022-07-23T01:32:31;4.95;;;4.45;;
43996;SDS011;34318;45.818;15.964;2022-07-23T01:34:57;6.03;;;4.57;;
43996;SDS011;34318;45.818;15.964;2022-07-23T01:37:24;4.97;;;4.57;;
43996;SDS011;34318;45.818;15.964;2022-07-23T01:39:51;5.07;;;4.40;;
43996;SDS011;34318;45.818;15.964;2022-07-23T01:42:18;4.68;;;4.28;;
43996;SDS011;34318;45.818;15.964;2022-07-23T01:44:45;5.10;;;4.55;;
43996;SDS011;34318;45.818;15.964;2022-07-23T01:47:12;5.82;;;5.18;;
43996;SDS011;34318;45.818;15.964;2022-07-23T01:49:39;5.55;;;4.97;;
43996;SDS011;34318;45.818;15.964;2022-07-23T01:52:06;5.03;;;4.63;;
43996;SDS011;34318;45.818;15.964;2022-07-23T01:54:37;5.72;;;5.05;;
43996;SDS011;34318;45.818;15.964;2022-07-23T01:57:05;5.10;;;4.70;;
43996;SDS011;34318;45.818;15.964;2022-07-23T01:59:33;4.95;;;4.50;;
43996;SDS011;34318;45.818;15.964;2022-07-23T02:02:00;5.30;;;4.85;;
43996;SDS011;34318;45.818;15.964;2022-07-23T02:04:27;5.43;;;4.82;;
43996;SDS011;34318;45.818;15.964;2022-07-23T02:06:54;5.30;;;4.80;;
43996;SDS011;34318;45.818;15.964;2022-07-23T02:09:24;5.22;;;4.63;;
43996;SDS011;34318;45.818;15.964;2022-07-23T02:11:51;5.00;;;4.50;;
43996;SDS011;34318;45.818;15.964;2022-07-23T02:14:18;5.18;;;4.72;;
43996;SDS011;34318;45.818;15.964;2022-07-23T02:16:44;5.25;;;4.85;;
43996;SDS011;34318;45.818;15.964;2022-07-23T02:19:11;6.13;;;4.78;;
43996;SDS011;34318;45.818;15.964;2022-07-23T02:21:38;5.40;;;4.90;;
43996;SDS011;34318;45.818;15.964;2022-07-23T02:24:05;6.60;;;5.90;;
43996;SDS011;34318;45.818;15.964;2022-07-23T02:26:32;7.05;;;4.90;;
43996;SDS011;34318;45.818;15.964;2022-07-23T02:29:01;5.43;;;4.90;;
43996;SDS011;34318;45.818;15.964;2022-07-23T02:31:29;5.72;;;4.93;;
43996;SDS011;34318;45.818;15.964;2022-07-23T02:33:57;5.55;;;5.00;;
43996;SDS011;34318;45.818;15.964;2022-07-23T02:36:24;8.02;;;5.28;;
43996;SDS011;34318;45.818;15.964;2022-07-23T02:38:51;5.85;;;5.03;;
43996;SDS011;34318;45.818;15.964;2022-07-23T02:41:18;5.35;;;4.95;;
43996;SDS011;34318;45.818;15.964;2022-07-23T02:43:44;5.25;;;4.85;;
43996;SDS011;34318;45.818;15.964;2022-07-23T02:46:11;7.22;;;4.95;;
43996;SDS011;34318;45.818;15.964;2022-07-23T02:48:38;5.35;;;4.85;;
43996;SDS011;34318;45.818;15.964;2022-07-23T02:51:05;5.53;;;5.03;;
43996;SDS011;34318;45.818;15.964;2022-07-23T02:53:40;4.93;;;4.53;;
43996;SDS011;34318;45.818;15.964;2022-07-23T02:56:07;5.90;;;4.95;;
43996;SDS011;34318;45.818;15.964;2022-07-23T02:58:34;5.55;;;5.05;;
43996;SDS011;34318;45.818;15.964;2022-07-23T03:01:01;5.75;;;5.25;;
43996;SDS011;34318;45.818;15.964;2022-07-23T03:03:28;5.97;;;4.72;;
43996;SDS011;34318;45.818;15.964;2022-07-23T03:05:55;5.10;;;4.63;;
43996;SDS011;34318;45.818;15.964;2022-07-23T03:08:22;5.60;;;5.10;;
43996;SDS011;34318;45.818;15.964;2022-07-23T03:10:49;10.23;;;5.38;;
43996;SDS011;34318;45.818;15.964;2022-07-23T03:13:16;5.30;;;4.80;;
43996;SDS011;34318;45.818;15.964;2022-07-23T03:15:42;5.10;;;4.70;;
43996;SDS011;34318;45.818;15.964;2022-07-23T03:18:09;5.43;;;4.93;;
43996;SDS011;34318;45.818;15.964;2022-07-23T03:20:36;5.10;;;4.60;;
43996;SDS011;34318;45.818;15.964;2022-07-23T03:23:03;4.95;;;4.45;;
43996;SDS011;34318;45.818;15.964;2022-07-23T03:25:30;5.65;;;5.05;;
43996;SDS011;34318;45.818;15.964;2022-07-23T03:27:57;5.28;;;4.35;;
43996;SDS011;34318;45.818;15.964;2022-07-23T03:30:24;5.45;;;5.00;;
43996;SDS011;34318;45.818;15.964;2022-07-23T03:32:51;5.30;;;4.82;;
43996;SDS011;34318;45.818;15.964;2022-07-23T03:35:18;5.30;;;4.80;;
43996;SDS011;34318;45.818;15.964;2022-07-23T03:37:45;6.97;;;5.03;;
43996;SDS011;34318;45.818;15.964;2022-07-23T03:40:12;6.47;;;5.03;;
43996;SDS011;34318;45.818;15.964;2022-07-23T03:42:39;5.10;;;4.68;;
43996;SDS011;34318;45.818;15.964;2022-07-23T03:45:08;5.22;;;4.72;;
43996;SDS011;34318;45.818;15.964;2022-07-23T03:47:35;5.47;;;4.97;;
43996;SDS011;34318;45.818;15.964;2022-07-23T03:50:03;5.15;;;4.57;;
43996;SDS011;34318;45.818;15.964;2022-07-23T03:52:30;5.65;;;4.60;;
43996;SDS011;34318;45.818;15.964;2022-07-23T03:54:57;6.38;;;5.30;;
43996;SDS011;34318;45.818;15.964;2022-07-23T03:57:25;5.07;;;4.68;;
43996;SDS011;34318;45.818;15.964;2022-07-23T03:59:52;5.20;;;4.70;;
43996;SDS011;34318;45.818;15.964;2022-07-23T04:02:19;5.88;;;4.93;;
43996;SDS011;34318;45.818;15.964;2022-07-23T04:04:46;6.75;;;5.03;;
43996;SDS011;34318;45.818;15.964;2022-07-23T04:07:13;4.97;;;4.57;;
43996;SDS011;34318;45.818;15.964;2022-07-23T04:09:40;5.50;;;5.00;;
43996;SDS011;34318;45.818;15.964;2022-07-23T04:12:11;6.30;;;4.78;;
43996;SDS011;34318;45.818;15.964;2022-07-23T04:14:38;6.82;;;5.18;;
43996;SDS011;34318;45.818;15.964;2022-07-23T04:17:05;5.55;;;4.90;;
43996;SDS011;34318;45.818;15.964;2022-07-23T04:19:32;5.22;;;4.75;;
43996;SDS011;34318;45.818;15.964;2022-07-23T04:21:59;5.35;;;4.85;;
43996;SDS011;34318;45.818;15.964;2022-07-23T04:24:26;5.85;;;5.35;;
43996;SDS011;34318;45.818;15.964;2022-07-23T04:26:53;5.30;;;4.80;;
43996;SDS011;34318;45.818;15.964;2022-07-23T04:29:20;5.35;;;4.85;;
43996;SDS011;34318;45.818;15.964;2022-07-23T04:31:46;5.90;;;5.40;;
43996;SDS011;34318;45.818;15.964;2022-07-23T04:34:14;6.93;;;5.13;;
43996;SDS011;34318;45.818;15.964;2022-07-23T04:36:41;6.30;;;5.05;;
43996;SDS011;34318;45.818;15.964;2022-07-23T04:39:08;5.65;;;5.15;;
43996;SDS011;34318;45.818;15.964;2022-07-23T04:41:35;7.07;;;5.50;;
43996;SDS011;34318;45.818;15.964;2022-07-23T04:44:02;5.38;;;4.88;;
43996;SDS011;34318;45.818;15.964;2022-07-23T04:46:29;5.90;;;5.40;;
43996;SDS011;34318;45.818;15.964;2022-07-23T04:48:56;5.80;;;5.30;;
43996;SDS011;34318;45.818;15.964;2022-07-23T04:51:24;5.38;;;4.88;;
43996;SDS011;34318;45.818;15.964;2022-07-23T04:53:51;6.18;;;5.57;;
43996;SDS011;34318;45.818;15.964;2022-07-23T04:56:18;5.80;;;5.25;;
43996;SDS011;34318;45.818;15.964;2022-07-23T04:58:45;8.48;;;5.53;;
43996;SDS011;34318;45.818;15.964;2022-07-23T05:01:12;5.55;;;5.13;;
43996;SDS011;34318;45.818;15.964;2022-07-23T05:03:39;6.00;;;5.40;;
43996;SDS011;34318;45.818;15.964;2022-07-23T05:06:06;5.60;;;5.13;;
43996;SDS011;34318;45.818;15.964;2022-07-23T05:08:33;5.45;;;4.82;;
43996;SDS011;34318;45.818;15.964;2022-07-23T05:10:59;9.15;;;5.45;;
43996;SDS011;34318;45.818;15.964;2022-07-23T05:13:26;6.40;;;5.75;;
43996;SDS011;34318;45.818;15.964;2022-07-23T05:15:53;7.82;;;5.70;;
43996;SDS011;34318;45.818;15.964;2022-07-23T05:18:23;5.82;;;5.28;;
43996;SDS011;34318;45.818;15.964;2022-07-23T05:20:50;6.75;;;6.07;;
43996;SDS011;34318;45.818;15.964;2022-07-23T05:23:17;6.15;;;5.50;;
43996;SDS011;34318;45.818;15.964;2022-07-23T05:25:44;6.43;;;5.65;;
43996;SDS011;34318;45.818;15.964;2022-07-23T05:28:11;5.78;;;5.25;;
43996;SDS011;34318;45.818;15.964;2022-07-23T05:30:37;5.80;;;5.20;;
43996;SDS011;34318;45.818;15.964;2022-07-23T05:33:04;8.60;;;6.07;;
43996;SDS011;34318;45.818;15.964;2022-07-23T05:35:33;6.75;;;6.05;;
43996;SDS011;34318;45.818;15.964;2022-07-23T05:38:00;8.65;;;5.78;;
43996;SDS011;34318;45.818;15.964;2022-07-23T05:40:26;6.25;;;5.75;;
43996;SDS011;34318;45.818;15.964;2022-07-23T05:42:53;6.70;;;5.97;;
43996;SDS011;34318;45.818;15.964;2022-07-23T05:45:20;7.43;;;6.00;;
43996;SDS011;34318;45.818;15.964;2022-07-23T05:47:49;7.85;;;7.10;;
43996;SDS011;34318;45.818;15.964;2022-07-23T05:50:19;6.88;;;6.18;;
43996;SDS011;34318;45.818;15.964;2022-07-23T05:52:45;8.38;;;5.97;;
43996;SDS011;34318;45.818;15.964;2022-07-23T05:55:13;7.68;;;6.03;;
43996;SDS011;34318;45.818;15.964;2022-07-23T05:57:40;5.95;;;5.45;;
43996;SDS011;34318;45.818;15.964;2022-07-23T06:00:08;7.95;;;5.93;;
43996;SDS011;34318;45.818;15.964;2022-07-23T06:02:37;6.60;;;5.35;;
43996;SDS011;34318;45.818;15.964;2022-07-23T06:05:05;5.90;;;5.35;;
43996;SDS011;34318;45.818;15.964;2022-07-23T06:07:34;5.85;;;5.35;;
43996;SDS011;34318;45.818;15.964;2022-07-23T06:10:04;7.07;;;5.53;;
43996;SDS011;34318;45.818;15.964;2022-07-23T06:12:31;6.82;;;6.20;;
43996;SDS011;34318;45.818;15.964;2022-07-23T06:14:59;8.10;;;5.65;;
43996;SDS011;34318;45.818;15.964;2022-07-23T06:17:26;6.97;;;5.95;;
43996;SDS011;34318;45.818;15.964;2022-07-23T06:19:54;7.93;;;5.72;;
43996;SDS011;34318;45.818;15.964;2022-07-23T06:22:21;7.45;;;5.82;;
43996;SDS011;34318;45.818;15.964;2022-07-23T06:24:48;6.57;;;5.95;;
43996;SDS011;34318;45.818;15.964;2022-07-23T06:27:17;6.80;;;6.20;;
43996;SDS011;34318;45.818;15.964;2022-07-23T06:29:51;6.75;;;6.03;;
43996;SDS011;34318;45.818;15.964;2022-07-23T06:32:18;8.52;;;5.45;;
43996;SDS011;34318;45.818;15.964;2022-07-23T06:34:44;8.00;;;5.93;;
43996;SDS011;34318;45.818;15.964;2022-07-23T06:37:14;8.95;;;6.00;;
43996;SDS011;34318;45.818;15.964;2022-07-23T06:39:42;8.43;;;6.00;;
43996;SDS011;34318;45.818;15.964;2022-07-23T06:42:11;6.38;;;5.75;;
43996;SDS011;34318;45.818;15.964;2022-07-23T06:44:38;6.40;;;5.80;;
43996;SDS011;34318;45.818;15.964;2022-07-23T06:47:05;9.82;;;6.00;;
43996;SDS011;34318;45.818;15.964;2022-07-23T06:49:33;7.93;;;6.63;;
43996;SDS011;34318;45.818;15.964;2022-07-23T06:52:02;6.78;;;5.97;;
43996;SDS011;34318;45.818;15.964;2022-07-23T06:54:30;7.32;;;6.50;;
43996;SDS011;34318;45.818;15.964;2022-07-23T06:56:56;5.82;;;5.32;;
43996;SDS011;34318;45.818;15.964;2022-07-23T06:59:23;6.55;;;5.95;;
43996;SDS011;34318;45.818;15.964;2022-07-23T07:01:50;6.65;;;6.07;;
43996;SDS011;34318;45.818;15.964;2022-07-23T07:04:17;8.32;;;5.90;;
43996;SDS011;34318;45.818;15.964;2022-07-23T07:06:44;6.22;;;5.65;;
43996;SDS011;34318;45.818;15.964;2022-07-23T07:09:11;9.50;;;6.30;;
43996;SDS011;34318;45.818;15.964;2022-07-23T07:11:38;7.90;;;6.45;;
43996;SDS011;34318;45.818;15.964;2022-07-23T07:14:05;6.78;;;6.18;;
43996;SDS011;34318;45.818;15.964;2022-07-23T07:16:32;12.63;;;5.95;;
43996;SDS011;34318;45.818;15.964;2022-07-23T07:18:59;7.32;;;5.88;;
43996;SDS011;34318;45.818;15.964;2022-07-23T07:21:27;10.95;;;5.78;;
43996;SDS011;34318;45.818;15.964;2022-07-23T07:23:54;11.15;;;6.07;;
43996;SDS011;34318;45.818;15.964;2022-07-23T07:26:21;8.68;;;5.80;;
43996;SDS011;34318;45.818;15.964;2022-07-23T07:28:47;19.58;;;6.57;;
43996;SDS011;34318;45.818;15.964;2022-07-23T07:31:14;8.20;;;5.75;;
43996;SDS011;34318;45.818;15.964;2022-07-23T07:33:41;14.15;;;6.95;;
43996;SDS011;34318;45.818;15.964;2022-07-23T07:36:10;7.53;;;5.75;;
43996;SDS011;34318;45.818;15.964;2022-07-23T07:38:44;11.57;;;5.70;;
43996;SDS011;34318;45.818;15.964;2022-07-23T07:41:10;18.20;;;6.05;;
43996;SDS011;34318;45.818;15.964;2022-07-23T07:43:38;9.05;;;6.10;;
43996;SDS011;34318;45.818;15.964;2022-07-23T07:46:05;7.07;;;5.55;;
43996;SDS011;34318;45.818;15.964;2022-07-23T07:48:36;6.57;;;5.90;;
43996;SDS011;34318;45.818;15.964;2022-07-23T07:51:04;8.55;;;6.78;;
43996;SDS011;34318;45.818;15.964;2022-07-23T07:53:31;7.30;;;5.97;;
43996;SDS011;34318;45.818;15.964;2022-07-23T07:55:58;7.10;;;6.32;;
43996;SDS011;34318;45.818;15.964;2022-07-23T07:58:25;8.93;;;6.60;;
43996;SDS011;34318;45.818;15.964;2022-07-23T08:00:52;9.05;;;6.30;;
43996;SDS011;34318;45.818;15.964;2022-07-23T08:03:19;7.20;;;6.50;;
43996;SDS011;34318;45.818;15.964;2022-07-23T08:05:46;8.75;;;6.00;;
43996;SDS011;34318;45.818;15.964;2022-07-23T08:08:13;13.93;;;6.90;;
43996;SDS011;34318;45.818;15.964;2022-07-23T08:10:42;8.73;;;6.68;;
43996;SDS011;34318;45.818;15.964;2022-07-23T08:13:12;9.60;;;7.18;;
43996;SDS011;34318;45.818;15.964;2022-07-23T08:15:43;8.00;;;6.78;;
43996;SDS011;34318;45.818;15.964;2022-07-23T08:18:12;7.40;;;6.45;;
43996;SDS011;34318;45.818;15.964;2022-07-23T08:20:38;8.55;;;7.10;;
43996;SDS011;34318;45.818;15.964;2022-07-23T08:23:06;7.20;;;6.47;;
43996;SDS011;34318;45.818;15.964;2022-07-23T08:25:35;8.57;;;5.97;;
43996;SDS011;34318;45.818;15.964;2022-07-23T08:28:04;8.75;;;6.28;;
43996;SDS011;34318;45.818;15.964;2022-07-23T08:30:32;9.88;;;6.00;;
43996;SDS011;34318;45.818;15.964;2022-07-23T08:33:04;5.97;;;5.47;;
43996;SDS011;34318;45.818;15.964;2022-07-23T08:35:34;9.20;;;6.13;;
43996;SDS011;34318;45.818;15.964;2022-07-23T08:38:04;15.43;;;6.65;;
43996;SDS011;34318;45.818;15.964;2022-07-23T08:40:33;7.22;;;6.50;;
43996;SDS011;34318;45.818;15.964;2022-07-23T08:43:09;7.60;;;6.63;;
43996;SDS011;34318;45.818;15.964;2022-07-23T08:45:46;9.23;;;6.38;;
43996;SDS011;34318;45.818;15.964;2022-07-23T08:48:15;6.53;;;5.93;;
43996;SDS011;34318;45.818;15.964;2022-07-23T08:50:48;8.35;;;6.30;;
43996;SDS011;34318;45.818;15.964;2022-07-23T08:53:17;7.45;;;6.32;;
43996;SDS011;34318;45.818;15.964;2022-07-23T08:55:45;7.30;;;6.55;;
43996;SDS011;34318;45.818;15.964;2022-07-23T08:58:14;6.50;;;5.75;;
43996;SDS011;34318;45.818;15.964;2022-07-23T09:00:42;8.45;;;6.68;;
43996;SDS011;34318;45.818;15.964;2022-07-23T09:03:14;7.40;;;6.45;;
43996;SDS011;34318;45.818;15.964;2022-07-23T09:05:44;9.13;;;6.50;;
43996;SDS011;34318;45.818;15.964;2022-07-23T09:08:12;8.60;;;7.75;;
43996;SDS011;34318;45.818;15.964;2022-07-23T09:11:00;12.45;;;8.00;;
43996;SDS011;34318;45.818;15.964;2022-07-23T09:13:41;12.10;;;8.60;;
43996;SDS011;34318;45.818;15.964;2022-07-23T09:16:13;13.82;;;9.35;;
43996;SDS011;34318;45.818;15.964;2022-07-23T09:26:32;16.35;;;8.57;;
43996;SDS011;34318;45.818;15.964;2022-07-23T09:31:34;13.75;;;8.77;;
43996;SDS011;34318;45.818;15.964;2022-07-23T09:34:10;15.43;;;9.55;;
43996;SDS011;34318;45.818;15.964;2022-07-23T09:36:39;18.35;;;10.10;;
43996;SDS011;34318;45.818;15.964;2022-07-23T09:39:06;15.05;;;9.43;;
43996;SDS011;34318;45.818;15.964;2022-07-23T09:41:35;15.23;;;8.52;;
43996;SDS011;34318;45.818;15.964;2022-07-23T09:44:14;16.63;;;9.43;;
43996;SDS011;34318;45.818;15.964;2022-07-23T09:46:50;16.98;;;10.32;;
43996;SDS011;34318;45.818;15.964;2022-07-23T09:49:23;16.10;;;9.93;;
43996;SDS011;34318;45.818;15.964;2022-07-23T09:51:58;15.20;;;9.05;;
43996;SDS011;34318;45.818;15.964;2022-07-23T09:57:06;14.93;;;10.85;;
43996;SDS011;34318;45.818;15.964;2022-07-23T09:59:42;14.35;;;9.80;;
43996;SDS011;34318;45.818;15.964;2022-07-23T10:02:11;13.65;;;9.40;;
43996;SDS011;34318;45.818;15.964;2022-07-23T10:04:39;16.60;;;9.00;;
43996;SDS011;34318;45.818;15.964;2022-07-23T10:07:06;11.27;;;8.80;;
43996;SDS011;34318;45.818;15.964;2022-07-23T10:09:37;15.18;;;8.05;;
43996;SDS011;34318;45.818;15.964;2022-07-23T10:12:13;14.30;;;9.48;;
43996;SDS011;34318;45.818;15.964;2022-07-23T10:14:49;13.18;;;8.90;;
43996;SDS011;34318;45.818;15.964;2022-07-23T10:17:17;16.05;;;9.15;;
43996;SDS011;34318;45.818;15.964;2022-07-23T10:19:44;13.55;;;8.73;;
43996;SDS011;34318;45.818;15.964;2022-07-23T10:22:20;13.00;;;8.60;;
43996;SDS011;34318;45.818;15.964;2022-07-23T10:24:52;13.25;;;8.70;;
43996;SDS011;34318;45.818;15.964;2022-07-23T10:30:00;10.35;;;7.60;;
43996;SDS011;34318;45.818;15.964;2022-07-23T10:32:45;13.35;;;9.02;;
43996;SDS011;34318;45.818;15.964;2022-07-23T10:38:12;11.68;;;8.57;;
43996;SDS011;34318;45.818;15.964;2022-07-23T10:40:55;12.32;;;8.38;;
43996;SDS011;34318;45.818;15.964;2022-07-23T10:43:25;13.13;;;9.00;;
43996;SDS011;34318;45.818;15.964;2022-07-23T10:52:15;13.63;;;7.90;;
43996;SDS011;34318;45.818;15.964;2022-07-23T10:54:42;13.48;;;8.52;;
43996;SDS011;34318;45.818;15.964;2022-07-23T10:57:13;11.55;;;8.25;;
43996;SDS011;34318;45.818;15.964;2022-07-23T11:02:41;10.90;;;8.45;;
43996;SDS011;34318;45.818;15.964;2022-07-23T11:05:10;10.00;;;7.53;;
43996;SDS011;34318;45.818;15.964;2022-07-23T11:10:35;11.57;;;8.20;;
43996;SDS011;34318;45.818;15.964;2022-07-23T11:26:51;12.45;;;7.55;;
43996;SDS011;34318;45.818;15.964;2022-07-23T11:31:55;21.98;;;8.32;;
43996;SDS011;34318;45.818;15.964;2022-07-23T11:34:24;10.57;;;7.45;;
43996;SDS011;34318;45.818;15.964;2022-07-23T11:37:27;9.98;;;7.18;;
43996;SDS011;34318;45.818;15.964;2022-07-23T11:39:56;11.32;;;7.90;;
43996;SDS011;34318;45.818;15.964;2022-07-23T11:42:24;8.57;;;6.75;;
43996;SDS011;34318;45.818;15.964;2022-07-23T11:44:56;9.80;;;7.75;;
43996;SDS011;34318;45.818;15.964;2022-07-23T11:47:27;7.97;;;6.53;;
43996;SDS011;34318;45.818;15.964;2022-07-23T11:50:00;13.15;;;7.25;;
43996;SDS011;34318;45.818;15.964;2022-07-23T11:52:31;9.07;;;6.78;;
43996;SDS011;34318;45.818;15.964;2022-07-23T11:54:59;10.27;;;7.28;;
43996;SDS011;34318;45.818;15.964;2022-07-23T11:57:37;9.57;;;7.68;;
43996;SDS011;34318;45.818;15.964;2022-07-23T12:02:41;12.07;;;7.22;;
43996;SDS011;34318;45.818;15.964;2022-07-23T12:05:14;12.60;;;6.95;;
43996;SDS011;34318;45.818;15.964;2022-07-23T12:07:44;13.55;;;7.78;;
43996;SDS011;34318;45.818;15.964;2022-07-23T12:10:16;10.32;;;7.30;;
43996;SDS011;34318;45.818;15.964;2022-07-23T12:12:48;12.35;;;7.45;;
43996;SDS011;34318;45.818;15.964;2022-07-23T12:15:26;9.90;;;7.72;;
43996;SDS011;34318;45.818;15.964;2022-07-23T12:18:02;11.20;;;6.90;;
43996;SDS011;34318;45.818;15.964;2022-07-23T12:20:33;10.82;;;6.47;;
43996;SDS011;34318;45.818;15.964;2022-07-23T12:23:03;9.45;;;7.25;;
43996;SDS011;34318;45.818;15.964;2022-07-23T12:25:33;7.90;;;7.18;;
43996;SDS011;34318;45.818;15.964;2022-07-23T12:30:43;10.00;;;7.57;;
43996;SDS011;34318;45.818;15.964;2022-07-23T12:33:23;10.95;;;7.18;;
43996;SDS011;34318;45.818;15.964;2022-07-23T12:35:54;7.35;;;6.55;;
43996;SDS011;34318;45.818;15.964;2022-07-23T12:38:24;13.25;;;7.10;;
43996;SDS011;34318;45.818;15.964;2022-07-23T12:40:53;10.38;;;6.65;;
43996;SDS011;34318;45.818;15.964;2022-07-23T12:43:22;12.35;;;7.25;;
43996;SDS011;34318;45.818;15.964;2022-07-23T12:48:49;8.02;;;6.28;;
43996;SDS011;34318;45.818;15.964;2022-07-23T12:51:22;9.13;;;6.88;;
43996;SDS011;34318;45.818;15.964;2022-07-23T12:53:54;8.00;;;6.30;;
43996;SDS011;34318;45.818;15.964;2022-07-23T12:56:39;10.00;;;6.70;;
43996;SDS011;34318;45.818;15.964;2022-07-23T12:59:14;9.15;;;6.55;;
43996;SDS011;34318;45.818;15.964;2022-07-23T13:01:44;9.95;;;6.88;;
43996;SDS011;34318;45.818;15.964;2022-07-23T13:04:21;8.38;;;6.43;;
43996;SDS011;34318;45.818;15.964;2022-07-23T13:09:21;9.45;;;6.45;;
43996;SDS011;34318;45.818;15.964;2022-07-23T13:11:51;14.32;;;7.03;;
43996;SDS011;34318;45.818;15.964;2022-07-23T13:14:22;16.90;;;7.07;;
43996;SDS011;34318;45.818;15.964;2022-07-23T13:16:52;11.13;;;7.03;;
43996;SDS011;34318;45.818;15.964;2022-07-23T13:19:40;11.05;;;6.47;;
43996;SDS011;34318;45.818;15.964;2022-07-23T13:22:07;8.55;;;6.63;;
43996;SDS011;34318;45.818;15.964;2022-07-23T13:24:35;7.53;;;6.55;;
43996;SDS011;34318;45.818;15.964;2022-07-23T13:27:05;9.27;;;6.75;;
43996;SDS011;34318;45.818;15.964;2022-07-23T13:29:36;8.65;;;6.82;;
43996;SDS011;34318;45.818;15.964;2022-07-23T13:32:03;9.23;;;6.60;;
43996;SDS011;34318;45.818;15.964;2022-07-23T13:34:38;11.50;;;7.10;;
43996;SDS011;34318;45.818;15.964;2022-07-23T13:37:07;8.07;;;6.88;;
43996;SDS011;34318;45.818;15.964;2022-07-23T13:39:34;9.43;;;6.97;;
43996;SDS011;34318;45.818;15.964;2022-07-23T13:42:04;8.45;;;6.95;;
43996;SDS011;34318;45.818;15.964;2022-07-23T13:44:32;11.63;;;7.32;;
43996;SDS011;34318;45.818;15.964;2022-07-23T13:46:59;8.32;;;6.78;;
43996;SDS011;34318;45.818;15.964;2022-07-23T13:49:26;7.20;;;6.50;;
43996;SDS011;34318;45.818;15.964;2022-07-23T13:51:54;7.05;;;6.45;;
43996;SDS011;34318;45.818;15.964;2022-07-23T13:54:21;8.05;;;6.53;;
43996;SDS011;34318;45.818;15.964;2022-07-23T13:56:48;11.40;;;6.20;;
43996;SDS011;34318;45.818;15.964;2022-07-23T13:59:15;11.23;;;7.30;;
43996;SDS011;34318;45.818;15.964;2022-07-23T14:01:43;11.38;;;6.93;;
43996;SDS011;34318;45.818;15.964;2022-07-23T14:04:30;9.82;;;6.85;;
43996;SDS011;34318;45.818;15.964;2022-07-23T14:06:59;8.65;;;6.28;;
43996;SDS011;34318;45.818;15.964;2022-07-23T14:09:27;8.52;;;6.10;;
43996;SDS011;34318;45.818;15.964;2022-07-23T14:11:53;7.20;;;6.45;;
43996;SDS011;34318;45.818;15.964;2022-07-23T14:14:20;6.60;;;5.82;;
43996;SDS011;34318;45.818;15.964;2022-07-23T14:16:47;9.98;;;6.80;;
43996;SDS011;34318;45.818;15.964;2022-07-23T14:19:15;8.77;;;6.35;;
43996;SDS011;34318;45.818;15.964;2022-07-23T14:21:42;10.13;;;6.68;;
43996;SDS011;34318;45.818;15.964;2022-07-23T14:24:09;11.07;;;7.20;;
43996;SDS011;34318;45.818;15.964;2022-07-23T14:26:36;11.15;;;7.32;;
43996;SDS011;34318;45.818;15.964;2022-07-23T14:29:03;11.38;;;7.40;;
43996;SDS011;34318;45.818;15.964;2022-07-23T14:31:31;8.07;;;7.10;;
43996;SDS011;34318;45.818;15.964;2022-07-23T14:33:58;7.78;;;6.28;;
43996;SDS011;34318;45.818;15.964;2022-07-23T14:36:25;8.48;;;6.68;;
43996;SDS011;34318;45.818;15.964;2022-07-23T14:38:53;11.10;;;6.88;;
43996;SDS011;34318;45.818;15.964;2022-07-23T14:41:22;10.82;;;6.35;;
43996;SDS011;34318;45.818;15.964;2022-07-23T14:43:53;8.65;;;6.53;;
43996;SDS011;34318;45.818;15.964;2022-07-23T14:46:20;10.57;;;6.47;;
43996;SDS011;34318;45.818;15.964;2022-07-23T14:48:47;10.32;;;6.72;;
43996;SDS011;34318;45.818;15.964;2022-07-23T14:51:14;8.80;;;6.20;;
43996;SDS011;34318;45.818;15.964;2022-07-23T14:53:41;6.72;;;5.97;;
43996;SDS011;34318;45.818;15.964;2022-07-23T14:56:08;8.85;;;6.47;;
43996;SDS011;34318;45.818;15.964;2022-07-23T14:58:36;10.13;;;6.45;;
43996;SDS011;34318;45.818;15.964;2022-07-23T15:01:03;9.05;;;6.28;;
43996;SDS011;34318;45.818;15.964;2022-07-23T15:03:30;7.80;;;6.47;;
43996;SDS011;34318;45.818;15.964;2022-07-23T15:06:05;10.25;;;6.18;;
43996;SDS011;34318;45.818;15.964;2022-07-23T15:08:32;10.57;;;6.70;;
43996;SDS011;34318;45.818;15.964;2022-07-23T15:11:00;13.15;;;6.65;;
43996;SDS011;34318;45.818;15.964;2022-07-23T15:13:26;7.20;;;6.47;;
43996;SDS011;34318;45.818;15.964;2022-07-23T15:15:53;10.18;;;6.43;;
43996;SDS011;34318;45.818;15.964;2022-07-23T15:18:22;9.00;;;6.45;;
43996;SDS011;34318;45.818;15.964;2022-07-23T15:20:49;8.88;;;6.03;;
43996;SDS011;34318;45.818;15.964;2022-07-23T15:23:15;9.02;;;6.35;;
43996;SDS011;34318;45.818;15.964;2022-07-23T15:25:42;8.85;;;5.45;;
43996;SDS011;34318;45.818;15.964;2022-07-23T15:28:16;7.47;;;5.70;;
43996;SDS011;34318;45.818;15.964;2022-07-23T15:30:47;7.20;;;6.20;;
43996;SDS011;34318;45.818;15.964;2022-07-23T15:33:15;13.57;;;6.80;;
43996;SDS011;34318;45.818;15.964;2022-07-23T15:35:47;7.05;;;6.05;;
43996;SDS011;34318;45.818;15.964;2022-07-23T15:38:14;12.75;;;5.78;;